Time;durP1;ratioP1;P1;durP2;ratioP2;P2;SDS_P1;SDS_P2;PMS_P1;PMS_P2;Temp;Humidity;BMP_temperature;BMP_pressure;BME280_temperature;BME280_humidity;BME280_pressure;Samples;Min_cycle;Max_cycle;Signal;HPM_P1;HPM_P2
2021/06/24 00:00:49;;;;;;;;;;;;;;;22.49;59.75;100091.91;2059917;28;19936;-66
2021/06/24 00:01:50;;;;;;;;;;;;;;;22.48;59.62;100085.53;2061627;28;19988;-66
2021/06/24 00:02:50;;;;;;;;;;;;;;;22.47;59.68;100093.97;2058965;28;20797;-66
2021/06/24 00:03:52;;;;;;;;;;;;;;;22.47;59.81;100091.22;2067503;28;19905;-66
2021/06/24 00:04:52;;;;;;;;;;;;;;;22.47;59.69;100088.47;2064247;28;19920;-66
2021/06/24 00:05:53;;;;;;;;;;;;;;;22.48;59.66;100101.16;2068114;28;20682;-66
2021/06/24 00:06:53;;;;;;;;;;;;;;;22.46;59.70;100095.84;2066928;28;19913;-66
2021/06/24 00:07:54;;;;;;;;;;;;;;;22.47;59.67;100100.31;2074565;28;20017;-66
2021/06/24 00:08:54;;;;;;;;;;;;;;;22.48;59.84;100090.16;2066368;28;19913;-66
2021/06/24 00:09:54;;;;;;;;;;;;;;;22.47;59.72;100089.31;2067787;28;19923;-66
2021/06/24 00:10:56;;;;;;;;;;;;;;;22.47;59.76;100094.81;2061403;28;20411;-66
2021/06/24 00:11:56;;;;;;;;;;;;;;;22.47;59.74;100096.72;2049785;28;19921;-66
2021/06/24 00:12:57;;;;;;;;;;;;;;;22.47;59.73;100097.56;2060232;28;19913;-69
2021/06/24 00:13:58;;;;;;;;;;;;;;;22.48;59.65;100095.66;2065194;28;19917;-66
2021/06/24 00:14:58;;;;;;;;;;;;;;;22.48;59.83;100101.16;2059406;28;19913;-66
2021/06/24 00:15:58;;;;;;;;;;;;;;;22.47;59.85;100096.72;2075490;28;20031;-66
2021/06/24 00:16:59;;;;;;;;;;;;;;;22.47;59.83;100099.47;2064310;28;19920;-66
2021/06/24 00:17:59;;;;;;;;;;;;;;;22.46;59.86;100098.59;2068946;28;20492;-66
2021/06/24 00:19:00;;;;;;;;;;;;;;;22.47;59.84;100093.97;2071855;28;20868;-66
2021/06/24 00:20:00;;;;;;;;;;;;;;;22.47;59.83;100096.72;2074686;28;20446;-66
2021/06/24 00:21:00;;;;;;;;;;;;;;;22.46;59.85;100101.34;2072284;28;19951;-66
2021/06/24 00:22:01;;;;;;;;;;;;;;;22.45;59.84;100096.88;2074434;28;19982;-66
2021/06/24 00:23:01;;;;;;;;;;;;;;;22.46;59.66;100098.59;2066450;28;20106;-66
2021/06/24 00:24:02;;;;;;;;;;;;;;;22.47;59.82;100099.47;2070791;28;20470;-66
2021/06/24 00:25:02;;;;;;;;;;;;;;;22.46;59.83;100103.22;2076086;28;20565;-66
2021/06/24 00:26:03;;;;;;;;;;;;;;;22.47;59.64;100104.94;2056581;28;19913;-66
2021/06/24 00:27:03;;;;;;;;;;;;;;;22.46;59.65;100098.59;2060144;28;19921;-66
2021/06/24 00:28:03;;;;;;;;;;;;;;;22.47;59.90;100097.56;2068651;28;20405;-66
2021/06/24 00:29:04;;;;;;;;;;;;;;;22.47;59.73;100100.31;2065819;28;19955;-67
2021/06/24 00:30:05;;;;;;;;;;;;;;;22.47;59.72;100093.97;2068887;28;19948;-66
2021/06/24 00:31:05;;;;;;;;;;;;;;;22.47;59.78;100093.97;2072519;28;19912;-66
2021/06/24 00:32:06;;;;;;;;;;;;;;;22.47;59.68;100093.97;2072335;28;19916;-66
2021/06/24 00:33:06;;;;;;;;;;;;;;;22.45;59.75;100091.38;2067352;28;20003;-66
2021/06/24 00:34:06;;;;;;;;;;;;;;;22.46;59.75;100097.72;2067813;28;19960;-66
2021/06/24 00:35:07;;;;;;;;;;;;;;;22.47;59.76;100102.19;2076842;28;20728;-66
2021/06/24 00:36:08;;;;;;;;;;;;;;;22.46;59.69;100104.09;2067306;28;20023;-66
2021/06/24 00:37:08;;;;;;;;;;;;;;;22.46;59.60;100098.59;2068299;28;19913;-66
2021/06/24 00:38:08;;;;;;;;;;;;;;;22.46;59.66;100100.47;2067190;28;19909;-66
2021/06/24 00:39:09;;;;;;;;;;;;;;;22.47;59.69;100093.97;2067623;28;19913;-66
2021/06/24 00:40:11;;;;;;;;;;;;;;;22.48;59.67;100091.03;2066149;28;19913;-66
2021/06/24 00:41:12;;;;;;;;;;;;;;;22.47;59.66;100102.19;2053786;28;19914;-66
2021/06/24 00:42:12;;;;;;;;;;;;;;;22.47;59.57;100093.97;2059742;28;19905;-65
2021/06/24 00:43:14;;;;;;;;;;;;;;;22.46;59.67;100092.22;2068390;28;19905;-66
2021/06/24 00:44:14;;;;;;;;;;;;;;;22.45;59.62;100091.38;2066056;28;20438;-66
2021/06/24 00:45:14;;;;;;;;;;;;;;;22.46;59.57;100094.97;2068487;28;19929;-66
2021/06/24 00:46:15;;;;;;;;;;;;;;;22.46;59.65;100093.13;2068707;28;20402;-66
2021/06/24 00:47:15;;;;;;;;;;;;;;;22.46;59.69;100092.22;2067424;28;19913;-66
2021/06/24 00:48:15;;;;;;;;;;;;;;;22.45;59.67;100088.63;2071243;28;20000;-66
2021/06/24 00:49:16;;;;;;;;;;;;;;;22.46;59.58;100092.22;2071126;28;20059;-66
2021/06/24 00:50:16;;;;;;;;;;;;;;;22.46;59.66;100092.22;2068946;28;19909;-66
2021/06/24 00:51:16;;;;;;;;;;;;;;;22.45;59.82;100096.03;2070169;28;20822;-66
2021/06/24 00:52:17;;;;;;;;;;;;;;;22.45;59.60;100099.63;2065732;28;20889;-66
2021/06/24 00:53:17;;;;;;;;;;;;;;;22.45;59.64;100096.03;2069166;28;19952;-66
2021/06/24 00:54:17;;;;;;;;;;;;;;;22.46;59.69;100092.22;2065918;28;20108;-66
2021/06/24 00:55:18;;;;;;;;;;;;;;;22.46;59.55;100092.22;2068921;28;20020;-66
2021/06/24 00:56:25;;;;;;;;;;;;;;;22.46;59.61;100081.25;2068450;28;20197;-66
2021/06/24 00:57:26;;;;;;;;;;;;;;;22.45;59.55;100085.03;2068590;28;19917;-66
2021/06/24 00:58:27;;;;;;;;;;;;;;;22.47;59.82;100088.47;2069159;28;20433;-66
2021/06/24 00:59:27;;;;;;;;;;;;;;;22.46;59.71;100086.72;2069693;28;19912;-66
2021/06/24 01:00:28;;;;;;;;;;;;;;;22.45;59.78;100085.88;2071967;28;19912;-66
2021/06/24 01:01:29;;;;;;;;;;;;;;;22.45;59.61;100087.78;2071052;28;19909;-66
2021/06/24 01:02:30;;;;;;;;;;;;;;;22.45;59.78;100079.53;2069326;28;20655;-66
2021/06/24 01:03:30;;;;;;;;;;;;;;;22.45;59.79;100085.03;2075087;28;20089;-66
2021/06/24 01:04:34;;;;;;;;;;;;;;;22.45;59.67;100079.53;2065355;28;19992;-65
2021/06/24 01:05:36;;;;;;;;;;;;;;;22.45;59.88;100082.28;2072801;28;19920;-66
2021/06/24 01:06:36;;;;;;;;;;;;;;;22.45;59.55;100083.13;2071987;28;19999;-66
2021/06/24 01:07:36;;;;;;;;;;;;;;;22.44;59.75;100072.31;2074374;28;19919;-66
2021/06/24 01:08:36;;;;;;;;;;;;;;;22.44;59.84;100083.28;2067228;28;19920;-66
2021/06/24 01:09:37;;;;;;;;;;;;;;;22.44;59.79;100077.81;2071319;28;19913;-66
2021/06/24 01:10:52;;;;;;;;;;;;;;;22.44;59.86;100075.06;2070122;28;19963;-66
2021/06/24 01:11:54;;;;;;;;;;;;;;;22.44;59.79;100075.06;2066309;28;19924;-66
2021/06/24 01:12:55;;;;;;;;;;;;;;;22.44;59.71;100072.31;2069805;28;20539;-66
2021/06/24 01:13:55;;;;;;;;;;;;;;;22.44;59.96;100073.19;2062667;28;19913;-66
2021/06/24 01:14:56;;;;;;;;;;;;;;;22.45;59.71;100076.78;2060729;28;19913;-66
2021/06/24 01:15:56;;;;;;;;;;;;;;;22.45;59.67;100074.91;2075374;28;20397;-66
2021/06/24 01:16:57;;;;;;;;;;;;;;;22.44;59.81;100075.06;2074643;28;19916;-66
2021/06/24 01:18:00;;;;;;;;;;;;;;;22.43;59.85;100070.59;2071018;28;19920;-66
2021/06/24 01:19:01;;;;;;;;;;;;;;;22.42;59.71;100074.41;2071442;28;19913;-66
2021/06/24 01:20:02;;;;;;;;;;;;;;;22.43;59.71;100070.59;2074968;28;19947;-67
2021/06/24 01:21:03;;;;;;;;;;;;;;;22.43;59.87;100067.88;2076319;28;19913;-66
2021/06/24 01:22:03;;;;;;;;;;;;;;;22.43;59.92;100070.59;2070398;28;19913;-66
2021/06/24 01:23:05;;;;;;;;;;;;;;;22.44;59.75;100072.31;2070399;28;19963;-66
2021/06/24 01:24:05;;;;;;;;;;;;;;;22.44;59.56;100066.81;2069907;28;19913;-66
2021/06/24 01:25:06;;;;;;;;;;;;;;;22.44;59.75;100067.69;2062854;28;20675;-66
2021/06/24 01:26:07;;;;;;;;;;;;;;;22.44;59.78;100066.81;2070180;28;20008;-66
2021/06/24 01:27:07;;;;;;;;;;;;;;;22.43;59.77;100070.59;2066713;28;20446;-66
2021/06/24 01:28:10;;;;;;;;;;;;;;;22.45;59.87;100068.56;2071424;28;19935;-66
2021/06/24 01:29:11;;;;;;;;;;;;;;;22.44;59.59;100055.84;2067535;28;19912;-66
2021/06/24 01:30:11;;;;;;;;;;;;;;;22.43;59.81;100060.47;2063015;28;20292;-66
2021/06/24 01:31:12;;;;;;;;;;;;;;;22.43;59.69;100065.13;2070850;28;20213;-67
2021/06/24 01:32:12;;;;;;;;;;;;;;;22.43;59.80;100065.13;2069772;28;19924;-66
2021/06/24 01:33:14;;;;;;;;;;;;;;;22.42;59.73;100064.25;2073483;28;19913;-66
2021/06/24 01:34:14;;;;;;;;;;;;;;;22.42;59.97;100057.91;2062094;28;19913;-66
2021/06/24 01:35:18;;;;;;;;;;;;;;;22.42;59.82;100057.91;2071605;28;20722;-66
2021/06/24 01:36:18;;;;;;;;;;;;;;;22.41;59.71;100057.03;2061281;28;19913;-66
2021/06/24 01:37:19;;;;;;;;;;;;;;;22.43;59.67;100062.38;2062208;28;19902;-66
2021/06/24 01:38:19;;;;;;;;;;;;;;;22.42;59.89;100052.44;2069951;28;19940;-66
2021/06/24 01:39:19;;;;;;;;;;;;;;;22.43;59.63;100060.47;2069921;28;20022;-66
2021/06/24 01:40:20;;;;;;;;;;;;;;;22.42;59.85;100066.16;2069812;28;20047;-66
2021/06/24 01:41:20;;;;;;;;;;;;;;;22.42;59.69;100066.16;2062267;28;19972;-66
2021/06/24 01:42:21;;;;;;;;;;;;;;;22.43;59.72;100065.13;2071405;28;19908;-66
2021/06/24 01:43:21;;;;;;;;;;;;;;;22.43;59.59;100065.97;2066522;28;19956;-66
2021/06/24 01:44:28;;;;;;;;;;;;;;;22.42;59.83;100058.78;2067954;28;20406;-66
2021/06/24 01:45:29;;;;;;;;;;;;;;;22.43;59.71;100059.63;2070894;28;19967;-66
2021/06/24 01:46:29;;;;;;;;;;;;;;;22.42;59.70;100066.16;2069404;28;19917;-66
2021/06/24 01:47:30;;;;;;;;;;;;;;;22.42;59.72;100063.41;2069900;28;19913;-65
2021/06/24 01:48:30;;;;;;;;;;;;;;;22.43;59.71;100059.63;2070590;28;20151;-68
2021/06/24 01:49:31;;;;;;;;;;;;;;;22.41;59.74;100053.44;2067921;28;19913;-66
2021/06/24 01:50:31;;;;;;;;;;;;;;;22.42;59.81;100058.78;2068449;28;19992;-66
2021/06/24 01:51:31;;;;;;;;;;;;;;;22.42;59.82;100061.50;2069084;28;20420;-66
2021/06/24 01:52:32;;;;;;;;;;;;;;;22.42;59.72;100055.19;2075552;28;19956;-66
2021/06/24 01:53:32;;;;;;;;;;;;;;;22.42;59.73;100057.91;2069473;28;19923;-66
2021/06/24 01:54:32;;;;;;;;;;;;;;;22.41;59.66;100057.03;2075765;28;20743;-66
2021/06/24 01:55:34;;;;;;;;;;;;;;;22.42;59.59;100055.19;2070740;28;19919;-66
2021/06/24 01:56:36;;;;;;;;;;;;;;;22.41;59.87;100056.19;2069494;28;19915;-66
2021/06/24 01:57:36;;;;;;;;;;;;;;;22.41;59.82;100061.69;2060061;28;19923;-66
2021/06/24 01:58:37;;;;;;;;;;;;;;;22.41;59.81;100053.44;2060454;28;20411;-66
2021/06/24 01:59:37;;;;;;;;;;;;;;;22.40;59.89;100058.09;2070788;28;19963;-66
2021/06/24 02:00:41;;;;;;;;;;;;;;;22.40;59.75;100057.22;2068457;28;20153;-65
2021/06/24 02:01:42;;;;;;;;;;;;;;;22.41;59.85;100056.19;2070883;28;19913;-66
2021/06/24 02:02:42;;;;;;;;;;;;;;;22.42;59.69;100063.41;2072616;28;20257;-66
2021/06/24 02:03:43;;;;;;;;;;;;;;;22.40;59.84;100066.31;2068804;28;19913;-66
2021/06/24 02:04:44;;;;;;;;;;;;;;;22.41;59.85;100064.41;2071444;28;20744;-66
2021/06/24 02:05:47;;;;;;;;;;;;;;;22.40;59.88;100066.31;2066673;28;19909;-66
2021/06/24 02:06:47;;;;;;;;;;;;;;;22.40;59.71;100062.72;2061055;28;19920;-66
2021/06/24 02:07:48;;;;;;;;;;;;;;;22.40;59.90;100062.72;2063661;28;20012;-66
2021/06/24 02:08:48;;;;;;;;;;;;;;;22.41;59.71;100056.19;2061530;28;20456;-66
2021/06/24 02:09:48;;;;;;;;;;;;;;;22.40;59.83;100060.81;2068013;28;19981;-66
2021/06/24 02:10:49;;;;;;;;;;;;;;;22.40;59.72;100059.97;2062363;28;19909;-66
2021/06/24 02:11:52;;;;;;;;;;;;;;;22.41;59.79;100056.19;2073946;28;20676;-66
2021/06/24 02:12:53;;;;;;;;;;;;;;;22.41;59.89;100061.69;2055614;28;19917;-66
2021/06/24 02:13:53;;;;;;;;;;;;;;;22.39;59.69;100056.38;2062682;28;19913;-66
2021/06/24 02:14:53;;;;;;;;;;;;;;;22.39;59.83;100059.13;2070109;28;19909;-66
2021/06/24 02:15:54;;;;;;;;;;;;;;;22.40;59.67;100060.81;2067028;28;20234;-66
2021/06/24 02:16:54;;;;;;;;;;;;;;;22.41;59.83;100061.69;2069279;28;19935;-66
2021/06/24 02:17:54;;;;;;;;;;;;;;;22.40;59.72;100057.22;2071696;28;19951;-66
2021/06/24 02:18:55;;;;;;;;;;;;;;;22.39;59.75;100059.13;2063678;28;20385;-66
2021/06/24 02:19:55;;;;;;;;;;;;;;;22.40;59.89;100059.97;2065076;28;20008;-66
2021/06/24 02:20:55;;;;;;;;;;;;;;;22.40;59.63;100057.22;2062160;28;19913;-66
2021/06/24 02:21:56;;;;;;;;;;;;;;;22.39;59.66;100055.50;2069513;28;19936;-66
2021/06/24 02:22:56;;;;;;;;;;;;;;;22.40;59.89;100049.00;2070395;28;19961;-66
2021/06/24 02:23:56;;;;;;;;;;;;;;;22.39;59.81;100050.88;2059762;28;19913;-66
2021/06/24 02:24:57;;;;;;;;;;;;;;;22.39;59.63;100048.13;2068082;28;19919;-66
2021/06/24 02:25:57;;;;;;;;;;;;;;;22.38;59.98;100045.56;2057646;28;19933;-66
2021/06/24 02:26:57;;;;;;;;;;;;;;;22.38;59.90;100051.03;2061394;28;20452;-65
2021/06/24 02:27:58;;;;;;;;;;;;;;;22.39;59.83;100041.75;2068127;28;20289;-66
2021/06/24 02:28:58;;;;;;;;;;;;;;;22.38;59.68;100042.81;2070140;28;20430;-66
2021/06/24 02:29:58;;;;;;;;;;;;;;;22.37;59.78;100041.97;2063259;28;19905;-66
2021/06/24 02:30:59;;;;;;;;;;;;;;;22.37;59.70;100043.84;2069775;28;20040;-66
2021/06/24 02:31:59;;;;;;;;;;;;;;;22.38;59.75;100051.03;2061096;28;19924;-66
2021/06/24 02:32:59;;;;;;;;;;;;;;;22.37;59.90;100041.09;2076337;28;19918;-66
2021/06/24 02:34:00;;;;;;;;;;;;;;;22.38;59.91;100045.56;2066885;28;19913;-66
2021/06/24 02:35:00;;;;;;;;;;;;;;;22.38;59.86;100042.81;2065942;28;19988;-66
2021/06/24 02:36:00;;;;;;;;;;;;;;;22.37;59.92;100049.34;2069546;28;20126;-66
2021/06/24 02:37:01;;;;;;;;;;;;;;;22.37;59.88;100047.44;2067643;28;20000;-66
2021/06/24 02:38:03;;;;;;;;;;;;;;;22.38;59.70;100045.56;2070628;28;20371;-66
2021/06/24 02:39:04;;;;;;;;;;;;;;;22.38;59.66;100051.91;2067992;28;20057;-66
2021/06/24 02:40:05;;;;;;;;;;;;;;;22.38;59.81;100049.16;2065181;28;19960;-66
2021/06/24 02:41:05;;;;;;;;;;;;;;;22.37;59.71;100038.34;2069655;28;19912;-66
2021/06/24 02:42:06;;;;;;;;;;;;;;;22.39;59.83;100041.75;2065365;28;19917;-65
2021/06/24 02:43:06;;;;;;;;;;;;;;;22.38;59.73;100045.56;2076244;28;19913;-66
2021/06/24 02:44:06;;;;;;;;;;;;;;;22.38;59.93;100042.81;2073597;28;19972;-66
2021/06/24 02:45:08;;;;;;;;;;;;;;;22.38;59.90;100045.56;2062422;28;19925;-66
2021/06/24 02:46:08;;;;;;;;;;;;;;;22.38;59.92;100040.06;2065100;28;19978;-66
2021/06/24 02:47:09;;;;;;;;;;;;;;;22.37;59.80;100043.84;2063368;28;20014;-66
2021/06/24 02:48:09;;;;;;;;;;;;;;;22.38;59.88;100046.41;2064602;28;19913;-65
2021/06/24 02:49:09;;;;;;;;;;;;;;;22.38;59.69;100043.66;2063704;28;19920;-66
2021/06/24 02:50:11;;;;;;;;;;;;;;;22.36;59.91;100042.13;2068408;28;19967;-66
2021/06/24 02:51:11;;;;;;;;;;;;;;;22.37;59.74;100043.84;2070842;28;19944;-66
2021/06/24 02:52:11;;;;;;;;;;;;;;;22.37;59.77;100041.09;2062270;28;19925;-65
2021/06/24 02:53:12;;;;;;;;;;;;;;;22.38;59.82;100043.66;2069335;28;19920;-66
2021/06/24 02:54:12;;;;;;;;;;;;;;;22.39;59.69;100047.25;2065598;28;19913;-66
2021/06/24 02:55:13;;;;;;;;;;;;;;;22.38;59.73;100051.03;2074354;28;19912;-66
2021/06/24 02:56:13;;;;;;;;;;;;;;;22.37;59.82;100049.34;2067746;28;20303;-66
2021/06/24 02:57:13;;;;;;;;;;;;;;;22.38;59.68;100057.38;2068789;28;19963;-66
2021/06/24 02:58:14;;;;;;;;;;;;;;;22.36;59.70;100048.47;2075734;28;19913;-66
2021/06/24 02:59:14;;;;;;;;;;;;;;;22.36;59.68;100047.59;2068878;28;20027;-66
2021/06/24 03:00:14;;;;;;;;;;;;;;;22.37;59.93;100049.34;2071007;28;19963;-66
2021/06/24 03:01:15;;;;;;;;;;;;;;;22.37;59.91;100049.34;2063600;28;19911;-66
2021/06/24 03:02:15;;;;;;;;;;;;;;;22.36;59.69;100053.09;2069293;28;20311;-67
2021/06/24 03:03:15;;;;;;;;;;;;;;;22.36;59.70;100045.72;2072149;28;19912;-66
2021/06/24 03:04:20;;;;;;;;;;;;;;;22.36;59.96;100047.59;2072977;28;19913;-66
2021/06/24 03:05:21;;;;;;;;;;;;;;;22.37;59.76;100052.09;2068031;28;19913;-66
2021/06/24 03:06:22;;;;;;;;;;;;;;;22.36;59.79;100048.47;2070442;28;19920;-66
2021/06/24 03:07:22;;;;;;;;;;;;;;;22.36;59.77;100053.09;2068901;28;19966;-66
2021/06/24 03:08:22;;;;;;;;;;;;;;;22.37;59.72;100046.59;2070625;28;19911;-66
2021/06/24 03:09:23;;;;;;;;;;;;;;;22.35;59.76;100052.25;2075230;28;19963;-66
2021/06/24 03:10:24;;;;;;;;;;;;;;;22.37;59.88;100049.34;2074640;28;19905;-66
2021/06/24 03:11:25;;;;;;;;;;;;;;;22.37;59.86;100049.34;2069647;28;19932;-66
2021/06/24 03:12:25;;;;;;;;;;;;;;;22.36;59.88;100053.09;2071458;28;19909;-66
2021/06/24 03:13:25;;;;;;;;;;;;;;;22.36;59.74;100053.09;2064076;28;19920;-66
2021/06/24 03:14:26;;;;;;;;;;;;;;;22.37;59.72;100049.34;2068121;28;19913;-66
2021/06/24 03:15:31;;;;;;;;;;;;;;;22.35;59.71;100046.75;2067862;28;19996;-66
2021/06/24 03:16:32;;;;;;;;;;;;;;;22.36;59.76;100044.88;2061789;28;20008;-66
2021/06/24 03:17:32;;;;;;;;;;;;;;;22.36;59.90;100045.72;2062916;28;20625;-66
2021/06/24 03:18:32;;;;;;;;;;;;;;;22.36;59.78;100042.13;2073422;28;19966;-66
2021/06/24 03:19:33;;;;;;;;;;;;;;;22.36;59.62;100047.59;2068596;28;19919;-66
2021/06/24 03:20:33;;;;;;;;;;;;;;;22.34;59.86;100044.16;2067375;28;20455;-66
2021/06/24 03:21:34;;;;;;;;;;;;;;;22.35;59.81;100046.75;2063194;28;20268;-66
2021/06/24 03:22:34;;;;;;;;;;;;;;;22.35;59.77;100048.66;2065236;28;19909;-66
2021/06/24 03:23:35;;;;;;;;;;;;;;;22.35;59.76;100048.66;2059418;28;20779;-66
2021/06/24 03:24:35;;;;;;;;;;;;;;;22.33;59.76;100042.47;2069668;28;20291;-66
2021/06/24 03:25:35;;;;;;;;;;;;;;;22.34;59.78;100045.06;2067557;28;19909;-66
2021/06/24 03:26:36;;;;;;;;;;;;;;;22.34;59.66;100052.41;2062401;28;19931;-66
2021/06/24 03:27:36;;;;;;;;;;;;;;;22.35;59.72;100051.41;2064603;28;20026;-66
2021/06/24 03:28:36;;;;;;;;;;;;;;;22.35;59.81;100048.66;2066149;28;19928;-66
2021/06/24 03:29:37;;;;;;;;;;;;;;;22.34;59.92;100056.03;2071964;28;20008;-66
2021/06/24 03:30:37;;;;;;;;;;;;;;;22.35;59.81;100051.41;2067950;28;19948;-66
2021/06/24 03:31:37;;;;;;;;;;;;;;;22.35;59.91;100056.91;2066227;28;19920;-66
2021/06/24 03:32:37;;;;;;;;;;;;;;;22.35;59.73;100057.75;2069430;28;19920;-66
2021/06/24 03:33:38;;;;;;;;;;;;;;;22.34;59.94;100055.16;2067432;28;19913;-66
2021/06/24 03:34:38;;;;;;;;;;;;;;;22.35;59.76;100056.91;2069173;28;20269;-66
2021/06/24 03:35:39;;;;;;;;;;;;;;;22.34;59.71;100049.66;2063858;28;19913;-66
2021/06/24 03:36:39;;;;;;;;;;;;;;;22.34;59.71;100052.41;2066695;28;19982;-66
2021/06/24 03:37:39;;;;;;;;;;;;;;;22.34;59.89;100053.28;2057283;28;20004;-66
2021/06/24 03:38:44;;;;;;;;;;;;;;;22.33;59.89;100056.19;2067881;28;19921;-66
2021/06/24 03:39:47;;;;;;;;;;;;;;;22.33;59.77;100059.81;2069104;28;19947;-66
2021/06/24 03:40:47;;;;;;;;;;;;;;;22.33;59.72;100053.44;2068538;28;19913;-66
2021/06/24 03:41:48;;;;;;;;;;;;;;;22.34;59.86;100055.16;2068447;28;19913;-66
2021/06/24 03:42:48;;;;;;;;;;;;;;;22.34;59.86;100056.03;2061804;28;20027;-66
2021/06/24 03:43:49;;;;;;;;;;;;;;;22.34;59.60;100056.03;2063541;28;19921;-66
2021/06/24 03:44:49;;;;;;;;;;;;;;;22.34;59.72;100055.16;2069225;28;20395;-66
2021/06/24 03:45:50;;;;;;;;;;;;;;;22.33;59.86;100065.28;2069472;28;19913;-66
2021/06/24 03:46:50;;;;;;;;;;;;;;;22.33;59.84;100056.19;2059554;28;19913;-66
2021/06/24 03:47:50;;;;;;;;;;;;;;;22.33;59.71;100064.44;2063640;28;19924;-66
2021/06/24 03:48:52;;;;;;;;;;;;;;;22.33;59.86;100056.19;2067728;28;19909;-66
2021/06/24 03:49:52;;;;;;;;;;;;;;;22.32;59.68;100059.97;2066671;28;19920;-66
2021/06/24 03:50:52;;;;;;;;;;;;;;;22.33;59.73;100061.69;2068332;28;19905;-66
2021/06/24 03:51:52;;;;;;;;;;;;;;;22.32;59.87;100063.59;2065690;28;19932;-66
2021/06/24 03:52:53;;;;;;;;;;;;;;;22.32;59.78;100063.59;2064841;28;19914;-66
2021/06/24 03:53:53;;;;;;;;;;;;;;;22.33;59.65;100061.69;2050595;28;19976;-66
2021/06/24 03:54:53;;;;;;;;;;;;;;;22.34;59.70;100068.88;2060157;28;19968;-66
2021/06/24 03:55:54;;;;;;;;;;;;;;;22.34;59.66;100068.88;2067572;28;19913;-66
2021/06/24 03:56:54;;;;;;;;;;;;;;;22.33;59.88;100064.44;2068143;28;19975;-66
2021/06/24 03:57:54;;;;;;;;;;;;;;;22.34;59.72;100071.63;2068783;28;19959;-66
2021/06/24 03:58:55;;;;;;;;;;;;;;;22.32;59.73;100070.94;2067557;28;19912;-66
2021/06/24 03:59:55;;;;;;;;;;;;;;;22.31;59.73;100070.09;2068866;28;19952;-66
2021/06/24 04:00:57;;;;;;;;;;;;;;;22.31;59.59;100067.34;2068324;28;19917;-66
2021/06/24 04:01:57;;;;;;;;;;;;;;;22.32;59.72;100079.19;2076839;28;20001;-66
2021/06/24 04:02:58;;;;;;;;;;;;;;;22.32;59.90;100073.69;2059496;28;19917;-66
2021/06/24 04:03:58;;;;;;;;;;;;;;;22.32;59.78;100079.19;2061842;28;20268;-66
2021/06/24 04:04:58;;;;;;;;;;;;;;;22.32;59.73;100074.56;2068749;28;19905;-66
2021/06/24 04:05:59;;;;;;;;;;;;;;;22.32;59.82;100079.19;2073333;28;19927;-66
2021/06/24 04:06:59;;;;;;;;;;;;;;;22.32;59.81;100073.69;2067527;28;20503;-66
2021/06/24 04:08:00;;;;;;;;;;;;;;;22.31;59.76;100071.97;2068784;28;20387;-66
2021/06/24 04:09:01;;;;;;;;;;;;;;;22.32;59.60;100074.56;2068802;28;20891;-66
2021/06/24 04:10:01;;;;;;;;;;;;;;;22.32;59.65;100073.69;2069307;28;19908;-66
2021/06/24 04:11:02;;;;;;;;;;;;;;;22.30;59.90;100076.63;2074471;28;19912;-66
2021/06/24 04:12:03;;;;;;;;;;;;;;;22.31;59.80;100071.97;2075319;28;19916;-66
2021/06/24 04:13:04;;;;;;;;;;;;;;;22.31;59.67;100077.47;2074588;28;19913;-66
2021/06/24 04:14:04;;;;;;;;;;;;;;;22.31;59.88;100077.47;2076913;28;20418;-66
2021/06/24 04:15:05;;;;;;;;;;;;;;;22.31;59.79;100082.97;2073063;28;20295;-66
2021/06/24 04:16:06;;;;;;;;;;;;;;;22.30;59.68;100076.63;2071556;28;19917;-66
2021/06/24 04:17:07;;;;;;;;;;;;;;;22.30;59.88;100081.25;2070236;28;19913;-66
2021/06/24 04:18:07;;;;;;;;;;;;;;;22.30;59.71;100081.25;2070003;28;19917;-66
2021/06/24 04:19:10;;;;;;;;;;;;;;;22.31;59.60;100088.47;2076946;28;20370;-66
2021/06/24 04:20:10;;;;;;;;;;;;;;;22.32;59.95;100084.66;2072661;28;19923;-66
2021/06/24 04:21:10;;;;;;;;;;;;;;;22.31;59.74;100082.97;2074551;28;20398;-65
2021/06/24 04:22:11;;;;;;;;;;;;;;;22.31;59.75;100091.22;2068800;28;20383;-66
2021/06/24 04:23:11;;;;;;;;;;;;;;;22.30;59.71;100082.13;2064350;28;20396;-65
2021/06/24 04:24:12;;;;;;;;;;;;;;;22.31;59.71;100093.94;2070137;28;20397;-66
2021/06/24 04:25:14;;;;;;;;;;;;;;;22.31;59.64;100082.97;2069184;28;19912;-66
2021/06/24 04:26:14;;;;;;;;;;;;;;;22.30;59.67;100095.00;2071121;28;19905;-67
2021/06/24 04:27:15;;;;;;;;;;;;;;;22.31;59.81;100093.94;2067323;28;20502;-65
2021/06/24 04:28:15;;;;;;;;;;;;;;;22.31;59.68;100093.94;2066450;28;19955;-66
2021/06/24 04:29:16;;;;;;;;;;;;;;;22.30;59.66;100093.09;2063959;28;19924;-65
2021/06/24 04:30:17;;;;;;;;;;;;;;;22.31;59.64;100097.56;2070449;28;20960;-66
2021/06/24 04:31:18;;;;;;;;;;;;;;;22.30;59.68;100095.00;2067958;28;20361;-66
2021/06/24 04:32:18;;;;;;;;;;;;;;;22.30;59.81;100103.22;2057865;28;20542;-66
2021/06/24 04:33:18;;;;;;;;;;;;;;;22.30;59.83;100103.22;2063400;28;19917;-65
2021/06/24 04:34:19;;;;;;;;;;;;;;;22.29;59.78;100102.34;2063691;28;19913;-66
2021/06/24 04:35:19;;;;;;;;;;;;;;;22.30;59.68;100100.50;2067202;28;20509;-66
2021/06/24 04:36:19;;;;;;;;;;;;;;;22.30;59.79;100100.50;2060341;28;19920;-66
2021/06/24 04:37:20;;;;;;;;;;;;;;;22.28;59.83;100097.91;2068272;28;19963;-66
2021/06/24 04:38:20;;;;;;;;;;;;;;;22.29;59.90;100101.50;2066292;28;20529;-66
2021/06/24 04:39:20;;;;;;;;;;;;;;;22.29;59.89;100102.34;2068196;28;19909;-66
2021/06/24 04:40:20;;;;;;;;;;;;;;;22.30;59.61;100108.72;2069228;28;19905;-66
2021/06/24 04:41:21;;;;;;;;;;;;;;;22.29;59.66;100107.00;2061848;28;19913;-66
2021/06/24 04:42:21;;;;;;;;;;;;;;;22.30;59.67;100108.72;2068307;28;19992;-66
2021/06/24 04:43:22;;;;;;;;;;;;;;;22.29;59.86;100113.34;2068777;28;20384;-66
2021/06/24 04:44:22;;;;;;;;;;;;;;;22.30;59.96;100103.22;2067122;28;19913;-66
2021/06/24 04:45:22;;;;;;;;;;;;;;;22.30;59.78;100119.72;2060638;28;19921;-66
2021/06/24 04:46:23;;;;;;;;;;;;;;;22.29;59.83;100109.72;2067315;28;19952;-66
2021/06/24 04:47:23;;;;;;;;;;;;;;;22.28;59.69;100117.13;2067978;28;19913;-66
2021/06/24 04:48:23;;;;;;;;;;;;;;;22.29;59.91;100112.47;2068518;28;19920;-66
2021/06/24 04:49:24;;;;;;;;;;;;;;;22.29;59.70;100113.34;2066293;28;19909;-66
2021/06/24 04:50:25;;;;;;;;;;;;;;;22.28;59.77;100117.13;2066650;28;20027;-66
2021/06/24 04:51:25;;;;;;;;;;;;;;;22.28;59.85;100121.75;2068525;28;19919;-66
2021/06/24 04:52:26;;;;;;;;;;;;;;;22.26;59.71;100120.03;2059659;28;19936;-66
2021/06/24 04:53:26;;;;;;;;;;;;;;;22.28;59.85;100117.13;2063604;28;20040;-66
2021/06/24 04:54:26;;;;;;;;;;;;;;;22.29;59.65;100120.72;2075405;28;20019;-66
2021/06/24 04:55:26;;;;;;;;;;;;;;;22.29;59.86;100123.47;2074480;28;19912;-66
2021/06/24 04:56:27;;;;;;;;;;;;;;;22.28;59.79;100121.75;2071316;28;19913;-66
2021/06/24 04:57:27;;;;;;;;;;;;;;;22.28;59.77;100124.50;2077075;28;19912;-66
2021/06/24 04:58:28;;;;;;;;;;;;;;;22.28;59.58;100127.25;2073408;28;19913;-65
2021/06/24 04:59:28;;;;;;;;;;;;;;;22.26;59.68;100122.78;2075218;28;20364;-66
2021/06/24 05:00:29;;;;;;;;;;;;;;;22.27;59.91;100129.16;2067988;28;19999;-66
2021/06/24 05:01:29;;;;;;;;;;;;;;;22.28;59.68;100127.25;2066247;28;19921;-66
2021/06/24 05:02:29;;;;;;;;;;;;;;;22.27;59.64;100126.41;2068051;28;19913;-66
2021/06/24 05:03:30;;;;;;;;;;;;;;;22.26;59.76;100133.75;2070291;28;19914;-65
2021/06/24 05:04:30;;;;;;;;;;;;;;;22.26;59.87;100133.75;2076965;28;20582;-66
2021/06/24 05:05:31;;;;;;;;;;;;;;;22.26;59.87;100128.25;2065707;28;19905;-66
2021/06/24 05:06:31;;;;;;;;;;;;;;;22.26;59.86;100130.16;2069302;28;19920;-66
2021/06/24 05:07:31;;;;;;;;;;;;;;;22.25;59.84;100132.06;2058808;28;19956;-66
2021/06/24 05:08:33;;;;;;;;;;;;;;;22.26;59.69;100128.25;2060613;28;19913;-66
2021/06/24 05:09:38;;;;;;;;;;;;;;;22.25;59.71;100132.06;2060560;28;19913;-66
2021/06/24 05:10:39;;;;;;;;;;;;;;;22.27;59.69;100131.91;2066102;28;19935;-66
2021/06/24 05:11:39;;;;;;;;;;;;;;;22.26;59.69;100130.16;2066318;28;19913;-66